Time;durP1;ratioP1;P1;durP2;ratioP2;P2;SDS_P1;SDS_P2;PMS_P1;PMS_P2;Temp;Humidity;BMP_temperature;BMP_pressure;BME280_temperature;BME280_humidity;BME280_pressure;Samples;Min_cycle;Max_cycle;Signal;HPM_P1;HPM_P2
2021/06/29 00:02:28;;;;;;;4.45;2.40;;;;;;;29.55;38.57;99428.31;4524901;31;83283;-75
2021/06/29 00:05:09;;;;;;;4.70;2.67;;;;;;;29.86;38.32;99429.09;4512388;31;80577;-75
2021/06/29 00:07:50;;;;;;;5.00;2.83;;;;;;;29.49;38.72;99433.78;4525013;31;82526;-75
2021/06/29 00:10:32;;;;;;;6.30;3.05;;;;;;;29.31;39.10;99425.25;4524897;31;80714;-73
2021/06/29 00:13:13;;;;;;;6.55;2.30;;;;;;;29.27;39.06;99427.72;4525065;31;80331;-75
2021/06/29 00:15:54;;;;;;;4.47;2.42;;;;;;;29.74;37.68;99419.19;4525352;31;77272;-75
2021/06/29 00:18:36;;;;;;;5.18;2.53;;;;;;;29.71;37.48;99413.44;4525181;31;76919;-75
2021/06/29 00:21:19;;;;;;;5.87;2.90;;;;;;;29.35;37.87;99416.19;4525156;31;77330;-74
2021/06/29 00:24:02;;;;;;;7.95;2.62;;;;;;;29.68;37.79;99425.00;4525201;31;73962;-75
2021/06/29 00:26:42;;;;;;;4.80;2.70;;;;;;;29.67;37.70;99417.84;4521479;31;73536;-73
2021/06/29 00:29:25;;;;;;;7.57;2.50;;;;;;;29.28;38.26;99418.38;4514850;31;81002;-73
2021/06/29 00:32:07;;;;;;;5.72;2.40;;;;;;;29.60;38.15;99423.63;4525107;31;75015;-73
2021/06/29 00:34:48;;;;;;;7.22;2.55;;;;;;;29.26;38.57;99420.59;4525050;31;81630;-75
2021/06/29 00:37:31;;;;;;;3.70;2.45;;;;;;;29.60;37.95;99420.03;4525011;31;85223;-73
2021/06/29 00:40:12;;;;;;;9.27;3.17;;;;;;;29.59;38.11;99416.47;4515319;31;79645;-72
2021/06/29 00:42:54;;;;;;;5.28;2.50;;;;;;;29.23;38.64;99415.63;4525053;31;88234;-75
2021/06/29 00:45:36;;;;;;;5.32;2.60;;;;;;;29.56;38.13;99414.28;4524945;31;78972;-74
2021/06/29 00:48:19;;;;;;;5.47;2.70;;;;;;;29.57;38.21;99417.88;4525202;31;76877;-72
2021/06/29 00:51:02;;;;;;;9.02;2.42;;;;;;;29.21;38.74;99415.09;4515315;31;85340;-75
2021/06/29 00:53:45;;;;;;;19.15;3.35;;;;;;;29.58;38.17;99409.34;4523468;31;127429;-74
2021/06/29 00:56:25;;;;;;;9.07;3.22;;;;;;;29.61;38.54;99417.03;4525493;31;74775;-73
2021/06/29 00:59:08;;;;;;;15.25;3.33;;;;;;;29.64;38.63;99410.16;4524970;31;79341;-76
2021/06/29 01:01:50;;;;;;;8.07;3.15;;;;;;;29.64;38.45;99405.47;4525193;31;74378;-75
2021/06/29 01:04:33;;;;;;;15.98;2.78;;;;;;;29.65;38.23;99404.38;4511319;31;78900;-73
2021/06/29 01:07:14;;;;;;;6.78;2.75;;;;;;;29.66;38.09;99410.72;4525161;31;81590;-74
2021/06/29 01:09:54;;;;;;;11.15;2.65;;;;;;;29.30;38.39;99407.13;4525280;31;72570;-74
2021/06/29 01:12:37;;;;;;;8.15;2.95;;;;;;;29.66;38.17;99400.53;4525244;31;76282;-75
2021/06/29 01:15:23;;;;;;;10.57;2.80;;;;;;;29.71;38.27;99405.19;4525270;31;78380;-75
2021/06/29 01:18:05;;;;;;;13.02;2.90;;;;;;;29.69;38.09;99402.72;4502770;31;778503;-74
2021/06/29 01:20:48;;;;;;;11.98;2.87;;;;;;;29.34;38.51;99408.25;4525267;31;76689;-75
2021/06/29 01:23:31;;;;;;;6.78;2.65;;;;;;;29.69;38.13;99390.87;4524974;31;78890;-74
2021/06/29 01:31:38;;;;;;;7.62;2.85;;;;;;;29.72;39.00;99388.41;4525001;31;78470;-75
2021/06/29 01:34:18;;;;;;;9.40;2.40;;;;;;;29.36;39.36;99384.84;4523060;31;79934;-74
2021/06/29 01:37:00;;;;;;;4.97;2.33;;;;;;;29.72;38.92;99374.66;4525236;31;74660;-77
2021/06/29 01:40:01;;;;;;;5.43;2.45;;;;;;;29.76;38.39;99379.62;4525057;31;79014;-76
2021/06/29 01:42:42;;;;;;;4.65;2.50;;;;;;;29.73;37.72;99381.81;4524942;31;82776;-76
2021/06/29 01:45:28;;;;;;;7.85;2.58;;;;;;;29.36;38.11;99376.63;4525267;31;78753;-75
2021/06/29 01:48:19;;;;;;;5.70;2.60;;;;;;;29.71;38.28;99377.69;4502879;31;778173;-76
2021/06/29 01:50:59;;;;;;;7.03;2.62;;;;;;;29.72;38.56;99382.91;4525254;31;76971;-75
2021/06/29 01:53:42;;;;;;;6.78;2.12;;;;;;;29.72;37.76;99390.34;4525060;31;77699;-75
2021/06/29 01:56:36;;;;;;;3.80;2.28;;;;;;;29.71;38.24;99391.44;4523857;31;120135;-74
2021/06/29 01:59:19;;;;;;;4.93;2.78;;;;;;;29.72;38.48;99393.91;4524686;31;80480;-73
2021/06/29 02:02:00;;;;;;;5.55;2.60;;;;;;;29.37;38.95;99385.69;4523725;31;77129;-76
2021/06/29 02:04:42;;;;;;;3.50;2.40;;;;;;;29.70;38.08;99390.63;4525146;31;73613;-74
2021/06/29 02:07:25;;;;;;;4.25;2.47;;;;;;;29.34;38.32;99386.25;4525267;31;77715;-75
2021/06/29 02:10:06;;;;;;;4.70;2.42;;;;;;;29.69;37.68;99391.72;4525136;31;80895;-75
2021/06/29 02:12:48;;;;;;;6.15;2.50;;;;;;;29.32;38.02;99391.19;4524888;31;83248;-73
2021/06/29 02:15:28;;;;;;;5.68;2.30;;;;;;;29.17;38.92;99401.06;4525090;31;76904;-75
2021/06/29 02:18:11;;;;;;;5.05;2.25;;;;;;;29.69;38.07;99397.22;4524910;31;77409;-73
2021/06/29 02:20:54;;;;;;;5.37;2.47;;;;;;;29.33;38.56;99401.91;4525171;31;75950;-73
2021/06/29 02:23:34;;;;;;;5.43;1.95;;;;;;;29.67;37.75;99393.09;4493417;31;78484;-73
2021/06/29 02:26:16;;;;;;;3.72;2.10;;;;;;;29.67;37.83;99385.69;4524720;31;82180;-74
2021/06/29 02:28:59;;;;;;;5.65;2.50;;;;;;;29.32;38.32;99391.19;4525338;31;75420;-75
2021/06/29 02:31:39;;;;;;;3.40;2.12;;;;;;;29.65;37.30;99395.28;4525147;31;79694;-74
2021/06/29 02:34:19;;;;;;;6.00;2.70;;;;;;;29.29;37.69;99389.81;4525034;31;83408;-77
2021/06/29 02:37:03;;;;;;;3.97;2.22;;;;;;;29.64;37.75;99394.47;4524902;31;77780;-76
2021/06/29 02:39:44;;;;;;;6.03;2.40;;;;;;;29.29;38.15;99394.50;4525275;31;83380;-76
2021/06/29 02:42:27;;;;;;;4.37;2.33;;;;;;;29.14;38.07;99392.56;4524966;31;80400;-76
2021/06/29 02:45:11;;;;;;;4.53;2.45;;;;;;;29.62;37.21;99387.62;4525177;31;76240;-75
2021/06/29 02:47:54;;;;;;;5.78;2.20;;;;;;;29.25;37.65;99399.72;4524879;31;84663;-75
2021/06/29 02:50:36;;;;;;;4.97;2.42;;;;;;;29.61;37.52;99389.56;4526063;31;27465;-76
2021/06/29 02:53:16;;;;;;;4.50;2.62;;;;;;;29.61;37.68;99389.56;4525032;31;77402;-79
2021/06/29 02:55:56;;;;;;;6.57;2.42;;;;;;;29.26;38.02;99386.78;4525229;31;77519;-74
2021/06/29 02:58:37;;;;;;;4.55;2.53;;;;;;;29.60;37.23;99387.88;4518158;31;123377;-74
2021/06/29 03:01:18;;;;;;;5.45;2.75;;;;;;;29.59;37.44;99388.16;4517339;31;87299;-73
2021/06/29 03:04:00;;;;;;;7.80;2.90;;;;;;;29.60;37.74;99393.38;4523401;31;79294;-74
2021/06/29 03:06:41;;;;;;;3.85;2.40;;;;;;;29.58;37.15;99392.84;4524423;31;80471;-73
2021/06/29 03:09:21;;;;;;;7.62;2.62;;;;;;;29.23;37.60;99394.47;4518154;31;79903;-74
2021/06/29 03:12:04;;;;;;;4.28;2.70;;;;;;;29.57;37.32;99385.72;4502411;31;85095;-74
2021/06/29 03:14:43;;;;;;;4.97;2.70;;;;;;;29.57;37.59;99387.62;4525176;31;79541;-74
2021/06/29 03:17:23;;;;;;;5.85;2.80;;;;;;;29.57;37.84;99393.94;4525207;31;77428;-73
2021/06/29 03:20:07;;;;;;;4.43;2.33;;;;;;;29.56;37.26;99386.78;4525192;31;78846;-72
2021/06/29 03:22:47;;;;;;;5.22;2.42;;;;;;;29.55;37.28;99387.88;4521144;31;85665;-73
2021/06/29 03:25:29;;;;;;;5.35;2.83;;;;;;;29.55;37.84;99379.66;4520721;31;79456;-74
2021/06/29 03:28:09;;;;;;;8.93;3.35;;;;;;;29.56;37.63;99383.22;4514289;31;81845;-75
2021/06/29 03:30:50;;;;;;;9.80;3.00;;;;;;;29.20;37.85;99388.72;4525151;31;75794;-75
2021/06/29 03:33:32;;;;;;;9.40;3.05;;;;;;;29.54;37.76;99385.41;4525402;31;77387;-73
2021/06/29 03:36:12;;;;;;;6.03;2.78;;;;;;;29.54;37.96;99383.47;4524725;31;80578;-75
2021/06/29 03:38:52;;;;;;;6.90;2.67;;;;;;;29.54;37.91;99391.72;4520390;31;83833;-75
2021/06/29 03:41:33;;;;;;;5.90;2.95;;;;;;;29.19;38.41;99392.56;4524724;31;78920;-74
2021/06/29 03:44:15;;;;;;;13.73;3.25;;;;;;;29.53;37.44;99395.56;4516137;31;81879;-74
2021/06/29 03:46:57;;;;;;;6.25;2.92;;;;;;;29.17;37.84;99400.25;4525318;31;76989;-75
2021/06/29 03:49:39;;;;;;;6.12;2.70;;;;;;;29.51;38.07;99391.44;4524943;31;84332;-73
2021/06/29 03:52:23;;;;;;;4.95;2.72;;;;;;;29.52;37.97;99374.69;4524829;31;82217;-75
2021/06/29 03:55:06;;;;;;;17.30;3.22;;;;;;;29.53;37.91;99379.06;4525140;31;79533;-74
2021/06/29 03:57:44;;;;;;;6.53;2.83;;;;;;;29.53;37.92;99392.81;4524967;31;88056;-75
2021/06/29 04:00:25;;;;;;;11.40;3.70;;;;;;;29.17;38.54;99390.09;4519795;31;218628;-74
2021/06/29 04:03:08;;;;;;;11.07;3.75;;;;;;;29.52;37.80;99393.06;4525157;31;79387;-76
2021/06/29 04:05:50;;;;;;;9.55;2.67;;;;;;;29.52;38.21;99396.69;4525076;31;78607;-71
2021/06/29 04:08:30;;;;;;;13.38;3.80;;;;;;;29.53;38.11;99397.50;4525133;31;86428;-73
2021/06/29 04:11:10;;;;;;;17.83;3.22;;;;;;;29.53;38.45;99398.31;4525224;31;82795;-73
2021/06/29 04:13:52;;;;;;;11.52;3.08;;;;;;;29.55;38.46;99395.31;4524733;31;88588;-74
2021/06/29 04:16:32;;;;;;;6.60;2.53;;;;;;;29.53;38.61;99395.56;4525360;31;80836;-74
2021/06/29 04:19:15;;;;;;;10.63;3.40;;;;;;;29.55;38.14;99403.56;4524867;31;80691;-74
2021/06/29 04:21:57;;;;;;;6.32;2.75;;;;;;;29.53;38.25;99401.06;4493197;31;85430;-74
2021/06/29 04:24:41;;;;;;;11.00;3.30;;;;;;;29.54;38.36;99396.41;4524985;31;75722;-74
2021/06/29 04:27:22;;;;;;;8.50;2.90;;;;;;;29.53;38.66;99398.31;4524991;31;83448;-73
2021/06/29 04:30:03;;;;;;;11.15;3.50;;;;;;;29.54;38.44;99396.75;4525365;31;78042;-74
2021/06/29 04:32:45;;;;;;;13.05;3.28;;;;;;;29.54;38.47;99397.22;4525043;31;82874;-74
2021/06/29 04:35:27;;;;;;;8.13;3.17;;;;;;;29.18;38.88;99397.22;4525102;31;82922;-74
2021/06/29 04:38:10;;;;;;;8.55;3.50;;;;;;;29.54;38.60;99396.41;4525224;31;75842;-74
2021/06/29 04:40:52;;;;;;;6.37;3.12;;;;;;;29.54;38.68;99399.97;4525238;31;82310;-75
2021/06/29 04:43:37;;;;;;;11.40;3.47;;;;;;;29.18;39.14;99397.22;4525157;31;81012;-74
2021/06/29 04:46:16;;;;;;;5.45;3.15;;;;;;;29.55;38.76;99404.38;4525322;31;77494;-74
2021/06/29 04:48:58;;;;;;;10.50;3.28;;;;;;;29.55;38.71;99396.12;4525646;31;76504;-71
2021/06/29 04:51:37;;;;;;;14.05;3.70;;;;;;;29.57;38.83;99391.19;4525461;31;75955;-73
2021/06/29 04:54:20;;;;;;;6.80;3.03;;;;;;;29.57;38.85;99393.94;4525228;31;80562;-73
2021/06/29 04:57:02;;;;;;;7.40;3.60;;;;;;;29.57;38.80;99393.13;4525147;31;80419;-73
2021/06/29 04:59:43;;;;;;;9.25;3.62;;;;;;;29.58;38.93;99395.59;4524077;31;75617;-74
2021/06/29 05:02:25;;;;;;;11.02;3.75;;;;;;;29.23;39.38;99391.72;4523804;31;122411;-73
2021/06/29 05:05:08;;;;;;;15.63;4.00;;;;;;;29.56;39.15;99385.97;4525291;31;77981;-72
2021/06/29 05:07:48;;;;;;;12.68;4.25;;;;;;;29.58;39.29;99384.59;4516493;31;81208;-70
2021/06/29 05:10:31;;;;;;;14.32;3.72;;;;;;;29.21;39.81;99391.19;4511565;31;72874;-73
2021/06/29 05:13:15;;;;;;;9.50;3.67;;;;;;;29.58;39.29;99387.34;4520039;31;75846;-74
2021/06/29 05:15:56;;;;;;;15.10;3.60;;;;;;;29.23;39.71;99385.41;4501045;31;83847;-62
2021/06/29 05:18:36;;;;;;;13.77;3.50;;;;;;;29.63;39.25;99381.84;4524076;31;117205;-74
2021/06/29 05:21:19;;;;;;;9.90;4.32;;;;;;;29.65;39.37;99381.53;4524787;31;80963;-67
2021/06/29 05:24:02;;;;;;;11.98;3.75;;;;;;;29.67;39.41;99384.84;4525174;31;77228;-71
2021/06/29 05:26:45;;;;;;;11.35;3.60;;;;;;;29.68;39.48;99387.31;4478539;32;80822;-69
2021/06/29 05:29:27;;;;;;;13.98;3.40;;;;;;;29.32;39.97;99385.69;4511861;31;86003;-64
2021/06/29 05:32:10;;;;;;;9.98;4.20;;;;;;;29.68;39.61;99392.00;4524883;31;78634;-67
2021/06/29 05:34:53;;;;;;;12.30;3.58;;;;;;;29.70;39.67;99387.88;4524488;31;80580;-64
2021/06/29 05:37:36;;;;;;;10.93;3.35;;;;;;;29.33;40.09;99393.69;4525115;31;81638;-64
2021/06/29 05:40:19;;;;;;;9.45;3.45;;;;;;;29.71;39.72;99392.28;4524725;31;78435;-67
2021/06/29 05:43:02;;;;;;;9.43;3.53;;;;;;;29.36;40.14;99389.53;4524591;31;91455;-67
2021/06/29 05:48:44;;;;;;;8.32;3.25;;;;;;;29.76;39.71;99396.94;4524982;31;74076;-69
2021/06/29 05:51:26;;;;;;;9.23;3.67;;;;;;;29.77;39.73;99392.25;4521818;31;78638;-64
2021/06/29 05:54:06;;;;;;;7.93;3.35;;;;;;;29.42;40.19;99391.16;4515681;31;80990;-63
2021/06/29 05:56:46;;;;;;;7.78;3.60;;;;;;;29.78;39.78;99388.41;4525262;31;76507;-75
2021/06/29 05:59:27;;;;;;;16.87;3.97;;;;;;;29.41;40.26;99384.03;4520508;31;80657;-74
2021/06/29 06:02:10;;;;;;;14.13;3.53;;;;;;;29.78;39.85;99386.47;4525273;31;77476;-75
2021/06/29 06:04:52;;;;;;;10.55;3.58;;;;;;;29.80;39.76;99387.03;4523136;31;127859;-72
2021/06/29 06:07:36;;;;;;;9.35;4.03;;;;;;;29.44;40.25;99394.47;4524873;31;82545;-73
2021/06/29 06:10:17;;;;;;;11.07;3.53;;;;;;;29.79;39.79;99396.38;4525148;31;76985;-74
2021/06/29 06:12:58;;;;;;;14.82;4.00;;;;;;;29.44;40.25;99386.25;4524676;31;92379;-75
2021/06/29 06:15:42;;;;;;;7.00;3.28;;;;;;;29.79;39.83;99392.78;4525189;31;79285;-74
2021/06/29 06:18:24;;;;;;;8.90;2.97;;;;;;;29.79;39.71;99396.38;4524598;31;77780;-66
2021/06/29 06:21:07;;;;;;;10.63;3.62;;;;;;;29.44;40.19;99397.22;4525452;31;75936;-74
2021/06/29 06:24:07;;;;;;;10.82;3.87;;;;;;;29.30;40.57;99401.63;4525235;31;86369;-75
2021/06/29 06:26:50;;;;;;;9.30;3.55;;;;;;;29.77;39.88;99397.75;4525120;31;77792;-73
2021/06/29 06:29:33;;;;;;;8.73;3.92;;;;;;;29.79;39.81;99403.78;4518214;31;77656;-75
2021/06/29 06:32:13;;;;;;;11.50;3.53;;;;;;;29.79;39.78;99390.03;4525222;31;81999;-75
2021/06/29 06:34:57;;;;;;;8.77;3.28;;;;;;;29.42;40.25;99386.50;4524863;31;79458;-72
2021/06/29 06:37:38;;;;;;;7.68;3.30;;;;;;;29.27;40.64;99388.44;4521392;31;82836;-75
2021/06/29 06:40:21;;;;;;;9.75;3.33;;;;;;;29.77;39.82;99381.25;4524826;31;84535;-75
2021/06/29 06:43:01;;;;;;;5.93;3.40;;;;;;;29.42;40.26;99391.16;4524940;31;81408;-74
2021/06/29 06:45:42;;;;;;;8.02;3.12;;;;;;;29.77;39.81;99386.75;4525042;31;78760;-74
2021/06/29 06:48:26;;;;;;;12.15;3.50;;;;;;;29.80;39.90;99381.53;4516786;31;73936;-73
2021/06/29 06:51:07;;;;;;;11.38;3.50;;;;;;;29.79;39.78;99376.28;4525255;31;78865;-74
2021/06/29 06:53:50;;;;;;;7.95;3.20;;;;;;;29.42;40.26;99374.69;4525274;31;80726;-75
2021/06/29 06:56:32;;;;;;;10.27;3.62;;;;;;;29.78;39.88;99374.66;4524994;31;80921;-72
2021/06/29 06:59:13;;;;;;;8.27;3.00;;;;;;;29.42;40.26;99364.50;4516382;31;81057;-74
2021/06/29 07:01:56;;;;;;;8.15;3.03;;;;;;;29.77;39.79;99365.59;4525239;31;80492;-74
2021/06/29 07:04:38;;;;;;;6.35;2.83;;;;;;;29.42;40.28;99372.75;4525172;31;77632;-75
2021/06/29 07:07:20;;;;;;;7.82;3.17;;;;;;;29.78;39.86;99372.72;4494756;31;1047270;-75
2021/06/29 07:10:02;;;;;;;9.85;3.58;;;;;;;29.80;39.75;99372.44;4525259;31;81475;-75
2021/06/29 07:12:42;;;;;;;8.07;3.20;;;;;;;29.82;39.76;99379.31;4524708;31;92312;-74
2021/06/29 07:15:22;;;;;;;7.72;3.22;;;;;;;29.84;39.78;99373.53;4525369;31;78161;-75
2021/06/29 07:18:05;;;;;;;9.55;3.05;;;;;;;29.47;40.22;99371.91;4523462;31;81695;-74
2021/06/29 07:20:47;;;;;;;8.07;3.03;;;;;;;29.83;39.76;99364.44;4509462;31;78558;-74
2021/06/29 07:23:28;;;;;;;5.93;3.35;;;;;;;29.85;39.75;99361.44;4524747;31;87972;-75
2021/06/29 07:26:15;;;;;;;7.10;3.22;;;;;;;29.85;39.76;99353.19;4503182;31;775197;-74
2021/06/29 07:28:54;;;;;;;7.47;3.20;;;;;;;29.88;39.76;99367.19;4523530;31;85856;-74
2021/06/29 07:31:38;;;;;;;7.10;2.62;;;;;;;29.50;40.23;99368.63;4525305;31;78192;-74
2021/06/29 07:34:20;;;;;;;8.07;3.10;;;;;;;29.88;39.81;99360.84;4524660;31;91283;-73
2021/06/29 07:37:01;;;;;;;8.52;2.78;;;;;;;29.52;40.27;99355.44;4524953;31;82459;-74
2021/06/29 07:39:44;;;;;;;7.20;3.10;;;;;;;29.37;40.78;99356.28;4513365;31;84757;-75
2021/06/29 07:42:26;;;;;;;12.07;3.08;;;;;;;29.89;40.04;99362.50;4516267;31;78747;-74
2021/06/29 07:45:09;;;;;;;8.75;3.28;;;;;;;29.52;40.53;99360.94;4525308;31;75821;-74
2021/06/29 07:47:51;;;;;;;8.90;3.33;;;;;;;29.92;40.06;99353.69;4524489;31;80652;-70
2021/06/29 07:50:32;;;;;;;9.60;3.12;;;;;;;29.94;39.94;99360.59;4525433;31;78041;-72
2021/06/29 07:53:14;;;;;;;12.27;3.15;;;;;;;29.57;40.42;99349.16;4524952;31;95714;-70
2021/06/29 07:55:57;;;;;;;6.22;3.05;;;;;;;29.94;40.00;99351.50;4524707;31;92249;-74
2021/06/29 07:58:42;;;;;;;9.23;3.15;;;;;;;29.94;39.96;99352.31;4515041;31;78746;-69
2021/06/29 08:01:24;;;;;;;6.70;2.80;;;;;;;29.96;39.90;99354.78;4523699;31;81442;-74
2021/06/29 08:04:07;;;;;;;7.45;2.85;;;;;;;29.94;39.92;99360.59;4523040;31;78861;-70
2021/06/29 08:06:50;;;;;;;8.32;3.00;;;;;;;29.95;39.96;99367.72;4525071;31;89912;-75
2021/06/29 08:09:30;;;;;;;7.53;3.08;;;;;;;29.96;39.90;99354.78;4523891;31;124408;-74
2021/06/29 08:12:19;;;;;;;6.45;2.80;;;;;;;29.59;40.43;99357.94;4525071;31;82635;-72
2021/06/29 08:15:02;;;;;;;8.35;2.78;;;;;;;29.95;39.93;99353.16;4515635;31;80506;-72
2021/06/29 08:17:47;;;;;;;7.37;2.97;;;;;;;29.95;39.84;99351.22;4502513;31;796122;-74
2021/06/29 08:20:29;;;;;;;9.35;3.17;;;;;;;29.99;39.91;99365.25;4525173;31;84071;-73
2021/06/29 08:23:14;;;;;;;6.47;3.08;;;;;;;29.96;39.94;99357.53;4524821;31;90805;-73
2021/06/29 08:25:55;;;;;;;8.30;3.12;;;;;;;29.98;39.85;99361.66;4510197;31;81014;-72
2021/06/29 08:28:37;;;;;;;7.93;3.03;;;;;;;29.97;39.83;99361.94;4525130;31;76580;-73
2021/06/29 08:31:21;;;;;;;4.20;2.45;;;;;;;29.61;40.34;99362.06;4525256;31;76601;-74
2021/06/29 08:34:01;;;;;;;7.45;2.90;;;;;;;29.96;39.89;99354.78;4524631;31;78244;-74
2021/06/29 08:36:41;;;;;;;6.68;3.20;;;;;;;29.99;39.88;99365.25;4525161;31;83923;-74
2021/06/29 08:39:24;;;;;;;7.40;3.03;;;;;;;29.62;40.34;99360.13;4525182;31;83123;-73
2021/06/29 08:42:07;;;;;;;10.10;3.42;;;;;;;29.96;39.88;99361.09;4525050;31;82204;-74
2021/06/29 08:44:49;;;;;;;6.12;2.62;;;;;;;29.97;39.91;99350.94;4517447;31;83917;-73
2021/06/29 08:47:35;;;;;;;6.72;3.15;;;;;;;29.97;39.88;99356.44;4493965;31;1087322;-74
2021/06/29 08:50:16;;;;;;;6.50;3.00;;;;;;;29.63;40.34;99356.28;4511452;31;83253;-72
2021/06/29 08:52:59;;;;;;;6.75;2.55;;;;;;;29.96;39.96;99350.09;4524879;31;84943;-74
2021/06/29 08:55:49;;;;;;;7.20;3.05;;;;;;;30.00;39.88;99347.63;4522897;31;80888;-73
2021/06/29 08:58:34;;;;;;;7.93;2.42;;;;;;;29.98;39.93;99356.16;4510255;31;80345;-72
2021/06/29 09:01:15;;;;;;;8.05;3.33;;;;;;;29.62;40.36;99355.44;4519633;31;82769;-74
2021/06/29 09:03:59;;;;;;;9.02;3.08;;;;;;;29.96;39.96;99347.34;4525353;31;76390;-73
2021/06/29 09:06:40;;;;;;;6.22;2.75;;;;;;;29.98;39.96;99352.56;4525152;31;77145;-74
2021/06/29 09:09:28;;;;;;;6.78;3.22;;;;;;;29.62;40.38;99351.88;4525405;31;77585;-73
2021/06/29 09:12:09;;;;;;;7.20;2.87;;;;;;;29.96;39.94;99344.59;4518876;31;240508;-74
2021/06/29 09:14:51;;;;;;;6.00;3.03;;;;;;;29.99;39.92;99345.97;4525225;31;80304;-74
2021/06/29 09:17:34;;;;;;;6.15;3.05;;;;;;;29.99;39.86;99343.22;4524930;31;90642;-71
2021/06/29 09:20:14;;;;;;;4.53;2.70;;;;;;;30.00;39.90;99336.63;4525007;31;79943;-74
2021/06/29 09:22:56;;;;;;;6.12;2.92;;;;;;;29.64;40.36;99338.66;4509537;31;83069;-75
2021/06/29 09:25:37;;;;;;;4.15;2.20;;;;;;;29.99;39.94;99343.22;4524828;31;85589;-74
2021/06/29 09:28:25;;;;;;;4.20;2.67;;;;;;;29.62;40.41;99344.44;4525178;31;83676;-73
2021/06/29 09:31:15;;;;;;;4.30;2.20;;;;;;;30.00;39.96;99336.63;4521233;31;75455;-73
2021/06/29 09:33:59;;;;;;;8.95;2.83;;;;;;;29.98;39.92;99328.66;4515660;31;86517;-72
2021/06/29 09:36:42;;;;;;;4.78;2.85;;;;;;;29.99;39.94;99321.22;4502970;31;777370;-73
2021/06/29 09:39:24;;;;;;;4.18;2.60;;;;;;;29.63;40.41;99331.53;4525098;31;76921;-74
2021/06/29 09:42:07;;;;;;;5.03;2.35;;;;;;;29.98;39.96;99317.66;4514295;31;76348;-75
2021/06/29 09:44:48;;;;;;;4.93;2.12;;;;;;;30.00;39.94;99314.63;4525311;31;75805;-72
2021/06/29 09:47:32;;;;;;;5.00;2.65;;;;;;;29.64;40.41;99311.16;4524906;31;93120;-74
2021/06/29 09:50:41;;;;;;;7.57;2.97;;;;;;;30.03;39.92;99308.56;4525205;31;79496;-73
2021/06/29 09:53:31;;;;;;;5.12;2.65;;;;;;;29.67;40.38;99307.87;4523745;31;80654;-73
2021/06/29 09:56:22;;;;;;;6.45;2.55;;;;;;;29.98;40.07;99306.66;4520324;31;80964;-74
2021/06/29 09:59:10;;;;;;;5.30;2.30;;;;;;;29.99;40.10;99302.78;4525271;31;77333;-72
2021/06/29 10:02:08;;;;;;;3.83;2.62;;;;;;;30.03;40.09;99303.06;4523965;31;100621;-74
2021/06/29 10:04:48;;;;;;;5.35;2.67;;;;;;;29.67;40.56;99302.38;4525302;31;80423;-72
2021/06/29 10:07:31;;;;;;;6.03;2.72;;;;;;;29.99;40.18;99279.97;4524448;31;102671;-74
2021/06/29 10:10:18;;;;;;;6.25;2.50;;;;;;;30.00;40.09;99287.09;4525112;31;82472;-73
2021/06/29 10:13:17;;;;;;;5.18;2.65;;;;;;;30.04;40.09;99279.13;4523319;31;128302;-74
2021/06/29 10:15:59;;;;;;;5.53;2.80;;;;;;;30.00;40.06;99276.09;4524735;31;87620;-73
2021/06/29 10:18:50;;;;;;;3.80;2.40;;;;;;;30.00;40.06;99270.59;4516192;31;81901;-73
2021/06/29 10:21:32;;;;;;;4.57;2.42;;;;;;;30.02;40.03;99267.56;4521068;31;81059;-73
2021/06/29 10:24:16;;;;;;;6.55;2.50;;;;;;;30.01;39.99;99271.41;4515554;31;85988;-69
2021/06/29 10:26:59;;;;;;;5.72;2.42;;;;;;;30.01;40.08;99258.47;4510974;31;75651;-72
2021/06/29 10:29:39;;;;;;;3.72;2.50;;;;;;;30.01;39.99;99263.16;4510475;31;78933;-72
2021/06/29 10:32:25;;;;;;;4.00;2.40;;;;;;;29.64;40.49;99251.50;4520774;31;78844;-73
2021/06/29 10:35:05;;;;;;;5.85;2.30;;;;;;;30.00;40.03;99270.59;4517991;31;81556;-74
2021/06/29 10:37:46;;;;;;;5.10;2.50;;;;;;;30.02;40.04;99257.38;4520934;31;84931;-75
2021/06/29 10:40:28;;;;;;;6.12;3.10;;;;;;;30.03;39.97;99252.69;4518249;31;84359;-72
2021/06/29 10:43:11;;;;;;;3.95;2.53;;;;;;;30.02;39.99;99257.38;4517220;31;76021;-71
2021/06/29 10:45:54;;;;;;;3.85;2.12;;;;;;;29.65;40.46;99258.66;4514181;31;78790;-72
2021/06/29 10:48:35;;;;;;;4.62;2.40;;;;;;;30.02;40.05;99245.53;4519728;31;77124;-73
2021/06/29 10:51:15;;;;;;;4.28;2.30;;;;;;;30.03;39.99;99248.03;4525066;31;83950;-73
2021/06/29 10:53:58;;;;;;;4.60;2.72;;;;;;;29.66;40.47;99241.06;4524937;31;89919;-73
2021/06/29 10:56:52;;;;;;;4.90;2.65;;;;;;;30.03;40.00;99236.19;4510321;31;80394;-72
2021/06/29 10:59:34;;;;;;;4.37;2.40;;;;;;;30.03;40.07;99247.19;4525213;31;78644;-71
2021/06/29 11:02:45;;;;;;;4.97;2.80;;;;;;;30.02;40.02;99235.34;4521275;31;82934;-63
2021/06/29 11:05:33;;;;;;;5.00;2.40;;;;;;;29.61;40.62;99232.00;4520640;31;77927;-73
2021/06/29 11:08:17;;;;;;;5.75;2.22;;;;;;;30.01;40.09;99230.97;4512460;31;81232;-74
2021/06/29 11:11:00;;;;;;;4.43;2.40;;;;;;;30.01;40.09;99225.47;4525105;31;82710;-72
2021/06/29 11:13:46;;;;;;;5.70;2.58;;;;;;;30.01;40.09;99222.72;4510798;31;122432;-72
2021/06/29 11:16:54;;;;;;;6.55;2.60;;;;;;;30.06;39.96;99219.94;4502830;31;784340;-75
2021/06/29 11:20:00;;;;;;;3.40;2.15;;;;;;;30.06;39.99;99225.44;4507411;31;86001;-74
2021/06/29 11:23:07;;;;;;;4.32;2.20;;;;;;;29.67;40.51;99217.97;4519466;31;86773;-73
2021/06/29 11:25:53;;;;;;;4.40;2.45;;;;;;;29.99;40.22;99209.25;4523909;31;78512;-72
2021/06/29 11:29:05;;;;;;;4.15;2.17;;;;;;;30.06;40.27;99221.88;4511593;31;80984;-72
2021/06/29 11:31:45;;;;;;;5.12;2.33;;;;;;;30.05;40.25;99215.53;4507351;31;77679;-73
2021/06/29 11:34:28;;;;;;;6.10;2.78;;;;;;;30.06;40.33;99208.94;4508659;31;77683;-71
2021/06/29 11:37:09;;;;;;;5.43;2.55;;;;;;;30.07;40.35;99204.25;4509205;31;76891;-74
2021/06/29 11:39:57;;;;;;;5.35;2.67;;;;;;;30.08;40.36;99201.22;4512477;31;75694;-73
2021/06/29 11:42:38;;;;;;;5.32;2.33;;;;;;;30.09;40.39;99199.28;4525075;31;81622;-72
2021/06/29 11:45:25;;;;;;;5.72;2.30;;;;;;;30.09;40.38;99191.03;4523387;31;80178;-73
2021/06/29 11:48:40;;;;;;;3.70;2.30;;;;;;;29.73;40.92;99194.00;4507334;31;82191;-73
2021/06/29 11:51:56;;;;;;;3.78;2.12;;;;;;;30.12;40.51;99188.53;4516045;31;78363;-72
2021/06/29 11:54:44;;;;;;;5.55;2.75;;;;;;;30.09;40.68;99172.59;4516490;31;76304;-73
2021/06/29 11:57:26;;;;;;;6.18;2.40;;;;;;;30.09;40.70;99169.03;4524928;31;86329;-73
2021/06/29 12:00:35;;;;;;;5.93;2.47;;;;;;;29.71;41.20;99165.97;4524496;31;78625;-73
2021/06/29 12:03:19;;;;;;;4.12;2.20;;;;;;;30.08;40.77;99159.97;4508969;31;88107;-72
2021/06/29 12:06:01;;;;;;;4.18;2.20;;;;;;;29.71;41.27;99153.06;4525059;31;77739;-72
2021/06/29 12:08:44;;;;;;;3.60;2.30;;;;;;;29.57;41.75;99154.78;4524664;31;93393;-73
2021/06/29 12:11:26;;;;;;;7.60;2.58;;;;;;;30.10;40.85;99145.91;4522815;31;80876;-71
2021/06/29 12:14:18;;;;;;;5.47;2.75;;;;;;;29.75;41.27;99156.03;4508893;31;127073;-74
2021/06/29 12:17:01;;;;;;;4.55;2.50;;;;;;;29.62;41.66;99143.75;4522138;31;87317;-72
2021/06/29 12:19:43;;;;;;;7.15;2.55;;;;;;;30.12;40.97;99130.75;4518035;31;75490;-72
2021/06/29 12:22:30;;;;;;;6.18;2.20;;;;;;;30.13;40.94;99132.44;4525082;31;77253;-68
2021/06/29 12:25:22;;;;;;;6.62;2.00;;;;;;;30.16;40.93;99129.09;4495792;31;782792;-72
2021/06/29 12:28:11;;;;;;;4.40;2.15;;;;;;;30.16;40.91;99128.28;4525076;31;84038;-73
2021/06/29 12:30:56;;;;;;;7.05;2.37;;;;;;;30.17;40.87;99122.50;4524817;31;82520;-73
2021/06/29 12:33:39;;;;;;;5.60;2.47;;;;;;;29.81;41.38;99118.34;4525400;31;79041;-74
2021/06/29 12:36:23;;;;;;;7.30;2.47;;;;;;;30.18;40.96;99117.81;4525091;31;75752;-73
2021/06/29 12:39:06;;;;;;;6.90;2.55;;;;;;;30.19;40.92;99112.03;4509406;31;76943;-68
2021/06/29 12:41:47;;;;;;;10.27;2.62;;;;;;;29.84;41.38;99112.25;4525129;31;83527;-72
2021/06/29 12:44:27;;;;;;;5.05;2.35;;;;;;;30.20;40.93;99110.91;4524936;31;86221;-74
2021/06/29 12:47:12;;;;;;;3.22;2.20;;;;;;;30.21;40.91;99101.53;4525431;31;76923;-73
2021/06/29 12:49:53;;;;;;;5.95;2.42;;;;;;;29.87;41.34;99108.94;4502850;31;782458;-73
2021/06/29 12:52:34;;;;;;;5.15;2.15;;;;;;;29.70;41.80;99101.94;4525429;31;76801;-74
2021/06/29 12:55:17;;;;;;;8.25;2.65;;;;;;;30.20;40.97;99090.81;4512485;31;82652;-74
2021/06/29 12:58:13;;;;;;;6.05;2.30;;;;;;;30.22;40.95;99100.44;4525118;31;76997;-70